首页
METAR-TAF:

METAR-TAF

机场 :

阿塔蒂尔克国际机场

伊斯坦布尔 阿塔土克, 土耳其

纬度: 40-58N, 经度: 028-49E, 海拔: 48米

当前天气观测

该预报发布于19分钟前的21:20 UTC
风速7节,风向
温度 16°C
湿度 88%
气压 1019 hPa
能見度: 6000
散云层高于3500英尺
多云层高于10000英尺

METAR: LTBA 212120Z 36007KT 6000 SCT035 BKN100 16/14 Q1019 NOSIG RMK RWY17L 01004KT RWY05 35007KT 320V020 RWY23 01006KT

时间: 00:39 (21:39 UTC)

预报

该预报发布于4小时和59分钟前的16:40 UTC
预报有效从21日的 18点(UTC)到 22日的 24点(UTC)
风速8节,风向北转东北
能見度: 6000
散云层高于3500英尺
多云层高于8000英尺
短暂存在
从 22日的 04点(UTC)到 22日的 08点(UTC)
能見度: 3200
少量云层高于1600英尺
多云层高于3000英尺
轻雾
短暂存在
从 22日的 08点(UTC)到 22日的 12点(UTC)
少量云层高于2000英尺, 积雨云.
多云层高于3000英尺
小阵雨

TAF: LTBA 211640Z 2118/2224 03008KT 6000 SCT035 BKN080 TEMPO 2204/2208 3200 BR FEW016 BKN030 TEMPO 2208/2212 -SHRA FEW020CB BKN030

超过4000个机场的气象观测和天气预报(METAR&TAF报告)。

可查询的气象台以黄色和红色小点在地图上表示。

将鼠标移到小点上方,可查看气象台名称。

然后点击查看天气观测和预报。

如需切换地图:点击带黑十字的绿色按钮放大地图;点击带横线的绿色按钮缩小地图;或者点击绿色箭头查看邻近地区的地图。


METAR-TAF: